createdAt,value
2023-02-28T00:03:08.452Z,1021.243
2023-02-28T00:23:07.255Z,1021.254
2023-02-28T00:43:08.113Z,1021.359
2023-02-28T01:03:08.809Z,1021.344
2023-02-28T01:23:07.586Z,1021.28
2023-02-28T01:43:07.454Z,1021.248
2023-02-28T02:03:09.011Z,1021.197
2023-02-28T02:23:08.098Z,1021.192
2023-02-28T02:43:07.900Z,1021.191
2023-02-28T03:03:08.719Z,1021.157
2023-02-28T03:23:07.651Z,1021.195
2023-02-28T03:43:07.407Z,1021.223
2023-02-28T04:03:08.142Z,1021.182
2023-02-28T04:23:07.890Z,1021.176
2023-02-28T04:43:07.775Z,1021.168
2023-02-28T05:03:08.716Z,1021.114
2023-02-28T05:23:07.487Z,1021.257
2023-02-28T05:43:07.622Z,1021.354
2023-02-28T06:03:08.552Z,1021.387
2023-02-28T06:23:07.420Z,1021.441
2023-02-28T06:43:07.265Z,1021.508
2023-02-28T07:03:09.035Z,1021.783
2023-02-28T07:23:07.852Z,1021.912
2023-02-28T07:43:07.667Z,1022.004
2023-02-28T08:03:08.364Z,1021.994
2023-02-28T08:23:07.283Z,1022.003
2023-02-28T08:43:07.174Z,1022.008
2023-02-28T09:03:08.540Z,1022.038
2023-02-28T09:23:07.368Z,1022.003
2023-02-28T09:43:07.276Z,1021.897
2023-02-28T10:03:08.251Z,1022.096
2023-02-28T10:23:08.414Z,1022.147
2023-02-28T10:43:07.271Z,1021.987
2023-02-28T11:03:08.192Z,1021.884
2023-02-28T11:23:08.407Z,1021.899
2023-02-28T11:43:07.598Z,1021.585
2023-02-28T12:03:08.884Z,1021.489
2023-02-28T12:23:07.776Z,1021.269
2023-02-28T12:43:07.783Z,1021.142
2023-02-28T13:03:08.795Z,1020.946
2023-02-28T13:23:07.841Z,1020.694
2023-02-28T13:43:07.750Z,1020.69
2023-02-28T14:03:08.929Z,1020.491
2023-02-28T14:23:08.055Z,1020.424
2023-02-28T14:43:08.078Z,1020.24
2023-02-28T15:03:09.060Z,1020.166
2023-02-28T15:23:08.160Z,1020.295
2023-02-28T15:43:08.238Z,1020.258
2023-02-28T16:03:09.672Z,1020.344
2023-02-28T16:23:07.812Z,1020.409
2023-02-28T16:43:07.963Z,1020.472
2023-02-28T17:03:09.178Z,1020.608
2023-02-28T17:23:08.100Z,1020.598
2023-02-28T17:43:08.489Z,1020.725
2023-02-28T18:03:08.459Z,1020.944
2023-02-28T18:23:07.418Z,1021.1
2023-02-28T18:43:07.715Z,1020.982
2023-02-28T19:03:08.836Z,1020.985
2023-02-28T19:23:07.786Z,1021.05
2023-02-28T19:43:07.914Z,1021.04
2023-02-28T20:03:08.906Z,1021.137
2023-02-28T20:23:07.641Z,1020.984
2023-02-28T20:43:07.755Z,1021.041
2023-02-28T21:03:08.773Z,1021.226
2023-02-28T21:23:07.664Z,1021.35
2023-02-28T21:43:07.682Z,1021.357
2023-02-28T22:03:08.712Z,1021.12
2023-02-28T22:23:07.579Z,1021.243
2023-02-28T22:43:07.642Z,1021.379
2023-02-28T23:03:08.900Z,1021.467
2023-02-28T23:23:07.645Z,1021.383
2023-02-28T23:43:07.452Z,1021.268
